Аэропорт: Черкассы. Черкассы

ICAO: UKKE

METAR:
2019/01/18 09:40
UKKE 180940Z 19006MPS 1500 BR OVC005 00/M01 Q1010
METAR:
Информация по данной станции не доступна